createdAt,value
2022-10-19T00:01:27.761Z,11.90
2022-10-19T00:03:55.882Z,10.15
2022-10-19T00:06:28.224Z,10.98
2022-10-19T00:08:57.219Z,12.38
2022-10-19T00:11:24.709Z,14.93
2022-10-19T00:13:53.415Z,12.88
2022-10-19T00:16:20.373Z,11.52
2022-10-19T00:18:47.042Z,8.07
2022-10-19T00:21:19.165Z,8.05
2022-10-19T00:23:46.643Z,12.60
2022-10-19T00:26:13.473Z,9.63
2022-10-19T00:28:40.183Z,9.95
2022-10-19T00:31:11.003Z,14.60
2022-10-19T00:33:37.693Z,10.88
2022-10-19T00:36:05.262Z,11.55
2022-10-19T00:38:32.446Z,11.15
2022-10-19T00:40:59.121Z,11.48
2022-10-19T00:43:32.284Z,12.38
2022-10-19T00:45:58.948Z,20.63
2022-10-19T00:48:32.341Z,10.35
2022-10-19T00:51:00.130Z,7.60
2022-10-19T00:53:30.467Z,12.13
2022-10-19T00:56:00.299Z,11.20
2022-10-19T00:58:27.747Z,13.23
2022-10-19T01:00:54.807Z,13.52
2022-10-19T01:03:21.603Z,9.95
2022-10-19T01:05:49.312Z,10.43
2022-10-19T01:08:16.572Z,12.50
2022-10-19T01:11:03.862Z,12.38
2022-10-19T01:13:59.627Z,9.27
2022-10-19T01:16:31.867Z,10.18
2022-10-19T01:19:15.959Z,12.65
2022-10-19T01:21:52.728Z,10.85
2022-10-19T01:25:04.102Z,12.13
2022-10-19T01:27:49.519Z,12.10
2022-10-19T01:30:40.022Z,11.32
2022-10-19T01:33:42.256Z,15.73
2022-10-19T01:36:09.017Z,11.52
2022-10-19T01:38:52.916Z,8.77
2022-10-19T01:41:36.856Z,14.77
2022-10-19T01:44:19.095Z,11.02
2022-10-19T01:46:52.793Z,12.60
2022-10-19T01:49:26.914Z,13.77
2022-10-19T01:54:30.514Z,13.98
2022-10-19T01:57:01.343Z,11.05
2022-10-19T01:59:29.138Z,11.50
2022-10-19T02:01:56.147Z,11.45
2022-10-19T02:04:24.907Z,12.55
2022-10-19T02:06:55.452Z,12.40
2022-10-19T02:09:22.144Z,12.50
2022-10-19T02:11:57.337Z,8.90
2022-10-19T02:14:31.626Z,8.40
2022-10-19T02:17:06.423Z,10.98
2022-10-19T02:19:33.110Z,7.78
2022-10-19T02:21:59.873Z,11.40
2022-10-19T02:24:26.444Z,14.77
2022-10-19T02:26:54.213Z,9.77
2022-10-19T02:29:20.979Z,8.18
2022-10-19T02:31:48.160Z,16.20
2022-10-19T02:34:14.856Z,12.63
2022-10-19T02:36:41.624Z,9.02
2022-10-19T02:39:09.026Z,14.38
2022-10-19T02:42:01.783Z,11.70
2022-10-19T02:44:40.644Z,14.60
2022-10-19T02:47:15.101Z,10.73
2022-10-19T02:49:43.579Z,6.30
2022-10-19T02:52:12.514Z,11.95
2022-10-19T02:54:42.907Z,7.60
2022-10-19T02:57:18.215Z,8.23
2022-10-19T02:59:45.682Z,16.70
2022-10-19T03:02:13.499Z,8.73
2022-10-19T03:04:41.691Z,12.85
2022-10-19T03:07:17.120Z,13.25
2022-10-19T03:09:44.624Z,12.38
2022-10-19T03:12:13.032Z,17.55
2022-10-19T03:14:39.778Z,8.15
2022-10-19T03:17:06.400Z,12.65
2022-10-19T03:19:34.084Z,9.38
2022-10-19T03:22:00.968Z,13.02
2022-10-19T03:24:27.679Z,13.40
2022-10-19T03:26:54.324Z,13.20
2022-10-19T03:29:20.996Z,12.57
2022-10-19T03:31:47.573Z,16.05
2022-10-19T03:34:14.213Z,11.77
2022-10-19T03:36:41.713Z,8.73
2022-10-19T03:39:11.937Z,15.45
2022-10-19T03:41:39.719Z,10.98
2022-10-19T03:44:07.819Z,11.05
2022-10-19T03:46:35.469Z,13.30
2022-10-19T03:49:02.567Z,11.98
2022-10-19T03:51:30.775Z,9.88
2022-10-19T03:54:03.817Z,9.60
2022-10-19T03:56:32.210Z,10.50
2022-10-19T03:59:01.520Z,10.10
2022-10-19T04:01:39.822Z,18.90
2022-10-19T04:04:10.339Z,11.57
2022-10-19T04:06:39.573Z,12.65
2022-10-19T04:09:08.466Z,11.27
2022-10-19T04:11:35.550Z,8.65
2022-10-19T04:14:02.822Z,10.85
2022-10-19T04:16:30.836Z,17.48
2022-10-19T04:18:58.755Z,10.48
2022-10-19T04:21:29.419Z,11.38
2022-10-19T04:24:07.396Z,10.82
2022-10-19T04:26:34.909Z,11.18
2022-10-19T04:29:01.944Z,10.85
2022-10-19T04:31:29.302Z,15.50
2022-10-19T04:33:56.687Z,8.90
2022-10-19T04:36:23.948Z,10.43
2022-10-19T04:38:51.161Z,12.27
2022-10-19T04:41:20.232Z,13.73
2022-10-19T04:43:47.884Z,10.82
2022-10-19T04:46:16.993Z,10.27
2022-10-19T04:48:44.458Z,16.40
2022-10-19T04:51:11.192Z,12.65
2022-10-19T04:53:39.870Z,12.70
2022-10-19T04:56:29.385Z,14.25
2022-10-19T04:59:00.400Z,9.00
2022-10-19T05:01:28.723Z,10.38
2022-10-19T05:06:24.490Z,14.63
2022-10-19T05:08:51.596Z,12.45
2022-10-19T05:11:19.451Z,11.07
2022-10-19T05:13:47.050Z,14.68
2022-10-19T05:16:18.996Z,17.08
2022-10-19T05:18:58.903Z,11.13
2022-10-19T05:21:28.682Z,10.57
2022-10-19T05:23:56.308Z,9.23
2022-10-19T05:26:24.956Z,14.20
2022-10-19T05:28:57.147Z,10.15
2022-10-19T05:31:26.579Z,19.27
2022-10-19T05:33:53.724Z,12.63
2022-10-19T05:36:26.235Z,16.48
2022-10-19T05:38:54.980Z,13.75
2022-10-19T05:41:22.535Z,17.70
2022-10-19T05:43:56.693Z,16.63
2022-10-19T05:46:24.861Z,22.15
2022-10-19T05:48:51.751Z,12.80
2022-10-19T05:51:21.090Z,11.23
2022-10-19T05:53:47.933Z,14.32
2022-10-19T05:56:17.666Z,16.33
2022-10-19T05:58:44.703Z,17.25
2022-10-19T06:01:12.152Z,15.50
2022-10-19T06:03:38.802Z,13.00
2022-10-19T06:06:07.002Z,16.40
2022-10-19T06:08:34.667Z,15.77
2022-10-19T06:11:15.919Z,16.40
2022-10-19T06:16:11.629Z,25.27
2022-10-19T06:18:39.207Z,26.05
2022-10-19T06:21:08.239Z,28.75
2022-10-19T06:23:35.471Z,25.90
2022-10-19T06:26:05.536Z,26.63
2022-10-19T06:28:32.683Z,22.38
2022-10-19T06:30:59.971Z,27.05
2022-10-19T06:33:27.849Z,28.23
2022-10-19T06:35:54.494Z,27.45
2022-10-19T06:38:21.415Z,25.25
2022-10-19T06:40:49.142Z,28.45
2022-10-19T06:43:16.192Z,21.08
2022-10-19T06:45:42.901Z,26.98
2022-10-19T06:48:09.626Z,25.88
2022-10-19T06:50:36.235Z,22.52
2022-10-19T06:53:02.838Z,23.40
2022-10-19T06:55:29.446Z,20.15
2022-10-19T06:57:56.113Z,21.55
2022-10-19T07:00:22.778Z,17.73
2022-10-19T07:02:49.417Z,15.27
2022-10-19T07:05:16.075Z,12.40
2022-10-19T07:07:42.991Z,8.60
2022-10-19T07:10:09.859Z,15.25
2022-10-19T07:12:36.575Z,12.80
2022-10-19T07:15:03.581Z,15.30
2022-10-19T07:17:30.181Z,11.25
2022-10-19T07:19:56.850Z,17.88
2022-10-19T07:22:27.935Z,12.38
2022-10-19T07:27:21.634Z,12.40
2022-10-19T07:29:48.233Z,14.57
2022-10-19T07:32:14.811Z,12.77
2022-10-19T07:34:41.425Z,13.40
2022-10-19T07:37:08.024Z,12.43
2022-10-19T07:39:34.651Z,13.77
2022-10-19T07:42:01.305Z,13.18
2022-10-19T07:44:28.101Z,12.07
2022-10-19T07:46:54.692Z,11.45
2022-10-19T07:49:21.745Z,10.05
2022-10-19T07:51:48.924Z,10.07
2022-10-19T07:54:15.560Z,16.65
2022-10-19T07:56:42.352Z,13.10
2022-10-19T07:59:09.990Z,12.18
2022-10-19T08:01:41.302Z,8.60
2022-10-19T08:06:55.161Z,13.75
2022-10-19T08:09:51.403Z,8.80
2022-10-19T08:12:13.872Z,10.30
2022-10-19T08:14:41.609Z,13.35
2022-10-19T08:17:11.824Z,16.23
2022-10-19T08:19:43.094Z,12.48
2022-10-19T08:22:10.397Z,12.05
2022-10-19T08:24:37.007Z,12.63
2022-10-19T08:27:03.697Z,11.68
2022-10-19T08:29:31.525Z,14.15
2022-10-19T08:31:59.148Z,8.70
2022-10-19T08:34:25.961Z,14.20
2022-10-19T08:36:52.734Z,10.55
2022-10-19T08:39:19.418Z,10.88
2022-10-19T08:42:04.597Z,16.33
2022-10-19T08:44:49.418Z,9.82
2022-10-19T08:47:32.434Z,8.73
2022-10-19T08:50:00.047Z,10.60
2022-10-19T08:52:35.965Z,9.75
2022-10-19T08:55:13.090Z,11.18
2022-10-19T08:58:01.137Z,8.60
2022-10-19T09:00:52.239Z,10.18
2022-10-19T09:03:58.487Z,10.65
2022-10-19T09:06:37.577Z,11.35
2022-10-19T09:09:05.961Z,12.68
2022-10-19T09:11:38.959Z,11.07
2022-10-19T09:14:25.687Z,11.57
2022-10-19T09:16:54.547Z,13.90
2022-10-19T09:19:25.798Z,8.90
2022-10-19T09:22:04.306Z,11.07
2022-10-19T09:24:43.742Z,12.40
2022-10-19T09:27:24.698Z,10.93
2022-10-19T09:29:56.717Z,11.18
2022-10-19T09:32:33.277Z,11.63
2022-10-19T09:35:03.007Z,10.20
2022-10-19T09:37:32.652Z,10.57
2022-10-19T09:39:59.337Z,9.40
2022-10-19T09:42:33.339Z,10.00
2022-10-19T09:45:06.563Z,11.30
2022-10-19T09:47:39.147Z,10.65
2022-10-19T09:50:17.427Z,11.45
2022-10-19T09:52:46.545Z,11.93
2022-10-19T09:55:33.793Z,11.52
2022-10-19T09:58:16.456Z,12.25
2022-10-19T10:00:57.683Z,14.98
2022-10-19T10:06:12.460Z,8.82
2022-10-19T10:08:50.824Z,15.73
2022-10-19T10:11:28.620Z,11.02
2022-10-19T10:13:56.652Z,9.20
2022-10-19T10:16:29.297Z,11.38
2022-10-19T10:18:58.404Z,12.80
2022-10-19T10:21:35.315Z,13.18
2022-10-19T10:24:10.845Z,9.32
2022-10-19T10:26:43.516Z,11.18
2022-10-19T10:29:37.969Z,10.68
2022-10-19T10:32:06.715Z,9.77
2022-10-19T10:34:50.097Z,12.73
2022-10-19T10:37:30.620Z,11.98
2022-10-19T10:40:01.795Z,12.68
2022-10-19T10:42:52.620Z,9.23
2022-10-19T10:45:33.577Z,8.18
2022-10-19T10:48:27.085Z,18.38
2022-10-19T10:50:54.461Z,16.55
2022-10-19T10:53:45.248Z,9.85
2022-10-19T10:56:28.731Z,13.50
2022-10-19T10:59:03.872Z,12.05
2022-10-19T11:01:39.970Z,12.50
2022-10-19T11:04:30.389Z,13.32
2022-10-19T11:07:14.259Z,11.60
2022-10-19T11:09:53.716Z,9.35
2022-10-19T11:12:35.195Z,13.07
2022-10-19T11:15:12.053Z,14.80
2022-10-19T11:17:43.965Z,13.20
2022-10-19T11:20:16.226Z,11.05
2022-10-19T11:22:45.600Z,12.65
2022-10-19T11:25:38.164Z,11.00
2022-10-19T11:28:04.957Z,13.98
2022-10-19T11:30:42.479Z,13.75
2022-10-19T11:33:24.927Z,14.18
2022-10-19T11:35:59.420Z,15.25
2022-10-19T11:38:46.509Z,11.85
2022-10-19T11:41:26.890Z,17.77
2022-10-19T11:44:05.824Z,10.27
2022-10-19T11:46:53.744Z,12.25
2022-10-19T11:49:46.147Z,11.50
2022-10-19T11:52:25.585Z,11.20
2022-10-19T11:55:13.111Z,13.13
2022-10-19T11:58:21.376Z,9.07
2022-10-19T12:01:00.208Z,14.25
2022-10-19T12:03:50.950Z,15.65
2022-10-19T12:06:26.817Z,12.32
2022-10-19T12:08:56.643Z,13.43
2022-10-19T12:11:54.063Z,15.48
2022-10-19T12:14:26.029Z,14.55
2022-10-19T12:16:57.103Z,14.80
2022-10-19T12:22:01.575Z,16.73
2022-10-19T12:24:30.843Z,12.32
2022-10-19T12:26:58.781Z,16.88
2022-10-19T12:29:33.528Z,13.75
2022-10-19T12:32:02.927Z,13.20
2022-10-19T12:34:56.316Z,12.45
2022-10-19T12:37:41.022Z,12.40
2022-10-19T12:40:27.727Z,12.50
2022-10-19T12:43:07.669Z,22.73
2022-10-19T12:46:14.754Z,10.32
2022-10-19T12:48:41.612Z,14.23
2022-10-19T12:51:12.114Z,12.98
2022-10-19T12:53:42.731Z,10.20
2022-10-19T12:56:09.283Z,15.00
2022-10-19T12:58:46.572Z,18.20
2022-10-19T13:01:23.567Z,15.95
2022-10-19T13:04:05.492Z,22.85
2022-10-19T13:06:35.877Z,12.38
2022-10-19T13:09:06.919Z,16.92
2022-10-19T13:14:20.157Z,20.48
2022-10-19T13:17:03.412Z,13.35
2022-10-19T13:19:30.259Z,12.98
2022-10-19T13:22:16.831Z,13.25
2022-10-19T13:24:43.459Z,17.00
2022-10-19T13:27:24.900Z,18.23
2022-10-19T13:29:51.949Z,16.88
2022-10-19T13:32:32.122Z,11.65
2022-10-19T13:35:20.790Z,14.88
2022-10-19T13:38:27.871Z,12.80
2022-10-19T13:40:57.112Z,17.48
2022-10-19T13:43:26.033Z,18.23
2022-10-19T13:46:10.481Z,18.42
2022-10-19T13:49:01.492Z,16.00
2022-10-19T13:51:37.190Z,17.88
2022-10-19T13:54:32.615Z,17.80
2022-10-19T13:57:05.122Z,18.08
2022-10-19T13:59:42.864Z,17.30
2022-10-19T14:02:12.890Z,15.00
2022-10-19T14:04:42.356Z,21.63
2022-10-19T14:07:30.739Z,13.60
2022-10-19T14:10:14.242Z,15.88
2022-10-19T14:12:44.161Z,21.67
2022-10-19T14:15:27.975Z,16.08
2022-10-19T14:17:55.484Z,20.73
2022-10-19T14:20:28.399Z,14.35
2022-10-19T14:22:55.114Z,16.08
2022-10-19T14:25:24.803Z,17.80
2022-10-19T14:28:00.011Z,15.15
2022-10-19T14:30:31.424Z,16.27
2022-10-19T14:33:02.184Z,16.75
2022-10-19T14:35:35.993Z,27.27
2022-10-19T14:38:08.533Z,23.90
2022-10-19T14:40:39.873Z,14.77
2022-10-19T14:43:23.172Z,17.13
2022-10-19T14:46:08.205Z,17.02
2022-10-19T14:48:36.501Z,16.30
2022-10-19T14:51:09.649Z,20.23
2022-10-19T14:53:44.621Z,17.20
2022-10-19T14:56:16.125Z,18.27
2022-10-19T14:58:55.537Z,16.15
2022-10-19T15:01:22.215Z,19.92
2022-10-19T15:03:50.201Z,17.83
2022-10-19T15:06:27.275Z,14.85
2022-10-19T15:09:00.040Z,21.70
2022-10-19T15:11:38.163Z,17.30
2022-10-19T15:14:20.587Z,15.90
2022-10-19T15:17:05.836Z,20.35
2022-10-19T15:19:41.105Z,17.88
2022-10-19T15:22:23.215Z,19.30
2022-10-19T15:25:02.012Z,21.35
2022-10-19T15:27:45.570Z,23.42
2022-10-19T15:30:18.188Z,22.27
2022-10-19T15:32:47.424Z,20.73
2022-10-19T15:35:29.255Z,30.60
2022-10-19T15:38:03.297Z,25.10
2022-10-19T15:40:34.586Z,22.30
2022-10-19T15:43:21.353Z,22.45
2022-10-19T15:45:48.051Z,20.38
2022-10-19T15:48:25.295Z,17.58
2022-10-19T15:50:52.629Z,18.45
2022-10-19T15:53:20.100Z,35.67
2022-10-19T15:55:47.168Z,23.95
2022-10-19T15:58:14.537Z,25.58
2022-10-19T16:00:42.422Z,22.98
2022-10-19T16:03:09.223Z,22.35
2022-10-19T16:05:36.561Z,32.90
2022-10-19T16:08:07.874Z,22.25
2022-10-19T16:10:36.835Z,21.30
2022-10-19T16:13:03.564Z,26.13
2022-10-19T16:15:30.283Z,22.55
2022-10-19T16:18:00.032Z,28.50
2022-10-19T16:20:30.725Z,24.55
2022-10-19T16:22:58.255Z,21.38
2022-10-19T16:25:25.248Z,25.25
2022-10-19T16:27:51.943Z,23.42
2022-10-19T16:30:18.746Z,26.77
2022-10-19T16:32:48.092Z,24.40
2022-10-19T16:35:15.104Z,23.88
2022-10-19T16:37:41.791Z,23.05
2022-10-19T16:40:09.318Z,24.05
2022-10-19T16:42:36.127Z,22.50
2022-10-19T16:45:03.325Z,25.50
2022-10-19T16:47:29.931Z,23.80
2022-10-19T16:50:01.697Z,28.13
2022-10-19T16:52:31.384Z,25.98
2022-10-19T16:54:58.898Z,23.55
2022-10-19T16:57:25.534Z,21.90
2022-10-19T17:02:21.378Z,22.92
2022-10-19T17:04:48.235Z,30.13
2022-10-19T17:07:15.612Z,29.27
2022-10-19T17:09:43.070Z,27.10
2022-10-19T17:12:11.646Z,27.75
2022-10-19T17:14:40.461Z,25.63
2022-10-19T17:17:08.144Z,22.63
2022-10-19T17:19:36.161Z,20.90
2022-10-19T17:22:05.038Z,23.35
2022-10-19T17:24:31.732Z,22.48
2022-10-19T17:27:01.848Z,26.17
2022-10-19T17:29:28.646Z,24.52
2022-10-19T17:31:55.525Z,20.38
2022-10-19T17:34:22.123Z,30.25
2022-10-19T17:36:49.044Z,25.63
2022-10-19T17:39:18.777Z,31.23
2022-10-19T17:41:47.046Z,20.98
2022-10-19T17:44:14.370Z,26.40
2022-10-19T17:46:41.670Z,26.80
2022-10-19T17:49:09.784Z,25.00
2022-10-19T17:51:37.139Z,22.10
2022-10-19T17:54:10.729Z,22.30
2022-10-19T17:56:38.649Z,25.00
2022-10-19T17:59:07.910Z,21.20
2022-10-19T18:01:35.892Z,22.90
2022-10-19T18:04:02.578Z,24.27
2022-10-19T18:06:31.913Z,24.88
2022-10-19T18:09:00.629Z,24.58
2022-10-19T18:11:29.857Z,28.95
2022-10-19T18:13:59.140Z,24.60
2022-10-19T18:16:37.854Z,27.13
2022-10-19T18:19:05.459Z,22.58
2022-10-19T18:21:35.857Z,23.33
2022-10-19T18:24:03.632Z,26.45
2022-10-19T18:26:32.480Z,26.38
2022-10-19T18:29:02.167Z,26.15
2022-10-19T18:31:30.802Z,21.60
2022-10-19T18:34:02.517Z,25.67
2022-10-19T18:36:30.142Z,26.73
2022-10-19T18:39:00.024Z,30.98
2022-10-19T18:41:28.051Z,21.58
2022-10-19T18:43:57.139Z,25.75
2022-10-19T18:46:26.034Z,19.00
2022-10-19T18:48:53.697Z,22.38
2022-10-19T18:51:21.524Z,25.85
2022-10-19T18:53:48.100Z,20.40
2022-10-19T18:56:17.320Z,21.00
2022-10-19T18:58:44.211Z,24.60
2022-10-19T19:01:15.081Z,25.92
2022-10-19T19:03:44.512Z,24.73
2022-10-19T19:06:18.305Z,23.45
2022-10-19T19:08:45.144Z,28.25
2022-10-19T19:11:17.080Z,27.33
2022-10-19T19:13:48.699Z,23.95
2022-10-19T19:16:15.410Z,22.15
2022-10-19T19:18:42.171Z,22.55
2022-10-19T19:21:15.401Z,33.72
2022-10-19T19:23:42.681Z,24.65
2022-10-19T19:26:10.398Z,22.83
2022-10-19T19:28:39.284Z,27.80
2022-10-19T19:31:09.681Z,25.48
2022-10-19T19:33:38.195Z,25.80
2022-10-19T19:36:07.344Z,25.38
2022-10-19T19:38:34.846Z,20.65
2022-10-19T19:41:04.988Z,17.88
2022-10-19T19:43:33.159Z,24.35
2022-10-19T19:46:06.275Z,19.58
2022-10-19T19:48:36.489Z,21.80
2022-10-19T19:51:03.360Z,19.83
2022-10-19T19:53:30.047Z,17.83
2022-10-19T19:55:56.640Z,24.38
2022-10-19T19:58:23.215Z,19.75
2022-10-19T20:00:49.857Z,16.73
2022-10-19T20:03:16.533Z,19.38
2022-10-19T20:05:43.290Z,16.83
2022-10-19T20:08:11.087Z,26.15
2022-10-19T20:10:39.602Z,21.17
2022-10-19T20:13:06.392Z,22.50
2022-10-19T20:15:33.023Z,22.85
2022-10-19T20:17:59.660Z,23.42
2022-10-19T20:20:26.379Z,32.05
2022-10-19T20:22:52.963Z,28.42
2022-10-19T20:25:19.652Z,29.98
2022-10-19T20:27:46.266Z,24.65
2022-10-19T20:30:14.224Z,32.35
2022-10-19T20:32:40.880Z,29.45
2022-10-19T20:35:07.815Z,31.05
2022-10-19T20:37:34.721Z,28.08
2022-10-19T20:40:08.170Z,28.23
2022-10-19T20:42:35.832Z,25.42
2022-10-19T20:45:03.003Z,26.77
2022-10-19T20:47:30.060Z,30.98
2022-10-19T20:49:56.868Z,25.45
2022-10-19T20:52:23.525Z,23.67
2022-10-19T20:54:50.204Z,28.30
2022-10-19T20:57:16.844Z,34.00
2022-10-19T20:59:45.565Z,29.67
2022-10-19T21:02:12.182Z,32.03
2022-10-19T21:04:39.148Z,30.35
2022-10-19T21:07:05.819Z,36.30
2022-10-19T21:09:32.649Z,29.35
2022-10-19T21:12:01.265Z,27.08
2022-10-19T21:14:29.441Z,32.88
2022-10-19T21:17:00.660Z,35.05
2022-10-19T21:19:28.986Z,31.20
2022-10-19T21:22:01.595Z,38.63
2022-10-19T21:24:32.353Z,34.50
2022-10-19T21:27:07.456Z,32.88
2022-10-19T21:29:34.413Z,34.58
2022-10-19T21:32:01.133Z,65.32
2022-10-19T21:34:30.511Z,107.63
2022-10-19T21:36:57.324Z,52.33
2022-10-19T21:39:24.028Z,155.82
2022-10-19T21:41:51.085Z,128.52
2022-10-19T21:44:18.698Z,97.10
2022-10-19T21:46:47.811Z,185.82
2022-10-19T21:49:14.646Z,78.90
2022-10-19T21:51:47.775Z,166.32
2022-10-19T21:54:18.104Z,93.93
2022-10-19T21:56:45.355Z,142.73
2022-10-19T21:59:12.743Z,110.95
2022-10-19T22:01:41.630Z,91.68
2022-10-19T22:04:12.246Z,66.80
2022-10-19T22:06:39.243Z,64.78
2022-10-19T22:09:08.497Z,30.90
2022-10-19T22:11:35.444Z,26.98
2022-10-19T22:14:03.860Z,19.33
2022-10-19T22:16:31.778Z,19.73
2022-10-19T22:18:58.438Z,23.40
2022-10-19T22:21:28.960Z,32.58
2022-10-19T22:24:01.448Z,62.35
2022-10-19T22:26:36.708Z,35.95
2022-10-19T22:29:04.739Z,57.40
2022-10-19T22:31:32.241Z,43.70
2022-10-19T22:34:07.697Z,28.40
2022-10-19T22:36:34.590Z,39.28
2022-10-19T22:39:01.251Z,31.83
2022-10-19T22:41:28.039Z,28.48
2022-10-19T22:43:54.641Z,21.20
2022-10-19T22:46:21.333Z,20.02
2022-10-19T22:48:48.083Z,21.52
2022-10-19T22:51:14.751Z,30.63
2022-10-19T22:53:41.451Z,20.52
2022-10-19T22:56:10.841Z,19.38
2022-10-19T22:58:37.568Z,25.55
2022-10-19T23:01:07.367Z,20.58
2022-10-19T23:03:34.915Z,24.25
2022-10-19T23:06:01.874Z,22.25
2022-10-19T23:08:28.603Z,27.40
2022-10-19T23:10:55.268Z,21.45
2022-10-19T23:13:22.024Z,24.20
2022-10-19T23:15:50.442Z,24.20
2022-10-19T23:18:17.456Z,23.95
2022-10-19T23:20:53.068Z,18.83
2022-10-19T23:23:19.683Z,18.73
2022-10-19T23:26:16.683Z,20.38
2022-10-19T23:28:45.052Z,20.50
2022-10-19T23:31:17.316Z,18.02
2022-10-19T23:33:44.562Z,18.17
2022-10-19T23:36:17.198Z,17.85
2022-10-19T23:38:45.464Z,18.17
2022-10-19T23:41:12.839Z,14.15
2022-10-19T23:43:40.255Z,15.00
2022-10-19T23:46:07.399Z,15.75
2022-10-19T23:48:34.716Z,15.25
2022-10-19T23:51:09.126Z,13.18
2022-10-19T23:53:40.821Z,15.23
2022-10-19T23:56:18.387Z,16.27
2022-10-19T23:58:45.907Z,13.80
